Time;durP1;ratioP1;P1;durP2;ratioP2;P2;SDS_P1;SDS_P2;PMS_P1;PMS_P2;Temp;Humidity;BMP_temperature;BMP_pressure;BME280_temperature;BME280_humidity;BME280_pressure;Samples;Min_cycle;Max_cycle;Signal;HPM_P1;HPM_P2
2022/04/03 00:02:20;;;;;;;;;0.00;0.00;;;;;15.43;42.43;100336.13;146602;589;47010;-70
2022/04/03 00:05:13;;;;;;;;;1.75;1.75;;;;;15.43;43.37;100350.94;146607;569;47008;-70
2022/04/03 00:08:06;;;;;;;;;0.00;0.00;;;;;15.43;42.69;100345.69;146604;564;46010;-70
2022/04/03 00:10:59;;;;;;;;;0.00;0.00;;;;;15.43;42.69;100348.31;146605;670;46012;-69
2022/04/03 00:13:52;;;;;;;;;0.50;0.00;;;;;13.96;42.68;100101.69;146603;570;46915;-70
2022/04/03 00:16:45;;;;;;;;;0.00;0.00;;;;;15.44;42.64;100369.25;146605;633;46020;-70
2022/04/03 00:19:37;;;;;;;;;0.00;0.00;;;;;15.46;43.63;100380.63;146605;563;46914;-70
2022/04/03 00:22:30;;;;;;;;;0.00;0.00;;;;;15.42;43.37;100376.19;146609;627;46020;-71
2022/04/03 00:25:23;;;;;;;;;0.00;0.00;;;;;15.39;43.32;100368.25;146606;661;46016;-70
2022/04/03 00:28:15;;;;;;;;;0.00;0.00;;;;;15.39;42.83;100359.50;146606;671;46008;-69
2022/04/03 00:31:08;;;;;;;;;0.00;0.00;;;;;15.35;42.65;100353.31;146601;638;46033;-70
2022/04/03 00:34:00;;;;;;;;;0.00;0.00;;;;;15.33;42.78;100356.78;146606;569;46008;-69
2022/04/03 00:36:54;;;;;;;;;1.25;0.00;;;;;14.36;42.92;100192.31;146605;658;46915;-69
2022/04/03 00:39:46;;;;;;;;;3.25;2.50;;;;;15.32;42.93;100358.47;146607;571;46020;-69
2022/04/03 00:42:40;;;;;;;;;0.00;0.00;;;;;15.28;42.66;100367.06;146602;592;46016;-69
2022/04/03 00:45:32;;;;;;;;;0.00;0.00;;;;;15.23;43.35;100355.63;146608;565;46021;-69
2022/04/03 00:48:24;;;;;;;;;1.00;0.00;;;;;15.17;42.95;100360.66;146604;604;47010;-68
2022/04/03 00:51:17;;;;;;;;;4.50;4.50;;;;;15.14;43.09;100369.34;146609;570;46021;-68
2022/04/03 00:54:13;;;;;;;;;1.50;0.00;;;;;15.10;43.27;100359.63;146602;563;47010;-70
2022/04/03 00:57:09;;;;;;;;;0.50;0.50;;;;;15.05;43.49;100362.97;146605;606;46020;-68
2022/04/03 01:00:02;;;;;;;;;0.25;0.25;;;;;14.98;43.67;100361.91;146603;570;46915;-68
2022/04/03 01:02:55;;;;;;;;;0.00;0.00;;;;;14.95;43.94;100349.69;146606;566;46020;-68
2022/04/03 01:05:47;;;;;;;;;0.00;0.00;;;;;14.91;44.13;100357.38;146600;565;47012;-68
2022/04/03 01:08:42;;;;;;;;;0.00;0.00;;;;;14.83;44.24;100364.09;146602;598;46020;-69
2022/04/03 01:11:34;;;;;;;;;0.00;0.00;;;;;14.73;44.99;100362.94;146600;717;47010;-69
2022/04/03 01:14:43;;;;;;;;;0.00;0.00;;;;;14.60;43.72;100346.06;146603;591;47008;-68
2022/04/03 01:17:35;;;;;;;;;0.00;0.00;;;;;14.53;44.29;100341.50;146604;627;46016;-68
2022/04/03 01:20:27;;;;;;;;;0.00;0.00;;;;;14.50;45.50;100344.88;146608;585;46008;-68
2022/04/03 01:23:19;;;;;;;;;0.00;0.00;;;;;14.43;44.96;100349.88;146604;576;46915;-68
2022/04/03 01:26:12;;;;;;;;;0.00;0.00;;;;;14.39;44.51;100354.12;146607;586;47008;-68
2022/04/03 01:29:04;;;;;;;;;0.50;0.00;;;;;14.39;45.01;100343.69;146603;564;46025;-69
2022/04/03 01:31:57;;;;;;;;;0.50;0.50;;;;;14.32;44.35;100340.00;146602;620;46020;-69
2022/04/03 01:34:49;;;;;;;;;0.75;0.00;;;;;14.28;43.77;100343.34;146605;578;46016;-69
2022/04/03 01:37:41;;;;;;;;;0.00;0.00;;;;;14.30;43.18;100349.50;146606;575;47008;-68
2022/04/03 01:40:35;;;;;;;;;0.00;0.00;;;;;14.32;43.48;100354.75;146604;673;47010;-69
2022/04/03 01:43:27;;;;;;;;;1.00;1.00;;;;;14.27;43.17;100362.47;146603;574;46031;-68
2022/04/03 01:46:20;;;;;;;;;0.00;0.00;;;;;14.25;42.76;100366.72;146605;655;46016;-73
2022/04/03 01:49:12;;;;;;;;;2.00;0.75;;;;;14.19;42.90;100374.38;146611;657;46008;-72
2022/04/03 01:52:04;;;;;;;;;2.00;2.00;;;;;14.18;42.21;100377.81;146605;650;46010;-73
2022/04/03 01:54:56;;;;;;;;;2.25;2.25;;;;;14.17;42.19;100364.72;146606;594;46020;-71
2022/04/03 01:57:49;;;;;;;;;2.00;1.50;;;;;14.21;42.69;100377.03;146605;558;46017;-76
2022/04/03 02:00:41;;;;;;;;;0.00;0.00;;;;;14.17;42.47;100378.63;146604;576;47008;-74
2022/04/03 02:03:34;;;;;;;;;0.75;0.75;;;;;14.18;42.40;100371.72;146604;569;47012;-74
2022/04/03 02:06:27;;;;;;;;;1.50;1.50;;;;;14.19;42.82;100382.19;146608;581;45021;-74
2022/04/03 02:09:19;;;;;;;;;0.75;0.75;;;;;14.14;42.63;100372.44;146604;611;47010;-73
2022/04/03 02:12:12;;;;;;;;;1.00;1.00;;;;;14.13;42.83;100371.56;146603;573;47009;-75
2022/04/03 02:15:05;;;;;;;;;4.00;3.00;;;;;14.10;43.44;100382.78;146602;590;47010;-75
2022/04/03 02:17:57;;;;;;;;;0.00;0.00;;;;;14.09;43.13;100377.53;146607;575;46033;-74
2022/04/03 02:20:50;;;;;;;;;0.00;0.00;;;;;13.63;42.71;100305.69;146605;570;46029;-77
2022/04/03 02:23:42;;;;;;;;;1.00;1.00;;;;;14.07;42.87;100392.22;146606;671;46032;-79
2022/04/03 02:26:34;;;;;;;;;9.50;5.25;;;;;14.08;43.12;100389.69;146602;564;46024;-78
2022/04/03 02:29:27;;;;;;;;;0.25;0.25;;;;;14.05;43.19;100389.59;146604;665;45021;-78
2022/04/03 02:32:21;;;;;;;;;0.00;0.00;;;;;14.04;43.29;100389.53;146605;641;46016;-77
2022/04/03 02:35:15;;;;;;;;;0.00;0.00;;;;;14.01;43.51;100399.84;146605;655;47008;-78
2022/04/03 02:38:07;;;;;;;;;0.50;0.00;;;;;13.97;43.46;100387.56;146603;600;46010;-74
2022/04/03 02:40:59;;;;;;;;;0.00;0.00;;;;;13.92;43.15;100392.63;146606;667;46020;-72
2022/04/03 02:43:51;;;;;;;;;0.00;0.00;;;;;13.87;43.53;100389.00;146605;719;46915;-74
2022/04/03 02:46:44;;;;;;;;;3.00;3.00;;;;;13.88;43.41;100395.97;146610;569;46008;-75
2022/04/03 02:49:36;;;;;;;;;0.00;0.00;;;;;13.82;43.50;100403.59;146609;569;45915;-74
2022/04/03 02:52:29;;;;;;;;;1.00;0.00;;;;;13.78;43.37;100399.13;146606;583;46021;-74
2022/04/03 02:55:22;;;;;;;;;0.25;0.25;;;;;13.71;43.52;100398.03;146606;706;46010;-74
2022/04/03 02:58:14;;;;;;;;;0.00;0.00;;;;;13.68;43.17;100395.31;146607;576;46009;-74
2022/04/03 03:01:06;;;;;;;;;1.00;0.00;;;;;13.67;43.01;100384.84;146603;564;46016;-74
2022/04/03 03:03:59;;;;;;;;;1.00;1.00;;;;;13.66;42.95;100383.06;146609;619;46008;-74
2022/04/03 03:06:51;;;;;;;;;0.00;0.00;;;;;13.62;42.92;100388.19;146602;583;46012;-74
2022/04/03 03:09:43;;;;;;;;;1.00;1.00;;;;;13.63;43.26;100399.47;146606;594;46008;-72
2022/04/03 03:12:35;;;;;;;;;1.50;1.50;;;;;13.59;43.58;100384.59;146603;687;46016;-72
2022/04/03 03:15:28;;;;;;;;;1.75;1.75;;;;;13.60;43.50;100392.44;146609;683;46020;-72
2022/04/03 03:18:21;;;;;;;;;1.25;1.00;;;;;13.58;43.54;100395.81;146605;566;46016;-72
2022/04/03 03:21:13;;;;;;;;;3.75;3.00;;;;;13.55;43.47;100399.25;146609;622;45021;-71
2022/04/03 03:24:06;;;;;;;;;2.00;1.00;;;;;13.53;43.58;100410.44;146604;632;46010;-69
2022/04/03 03:26:59;;;;;;;;;2.25;2.25;;;;;13.47;43.96;100420.66;146606;607;47008;-69
2022/04/03 03:29:51;;;;;;;;;2.00;0.50;;;;;13.42;44.28;100428.28;146605;653;46016;-70
2022/04/03 03:32:43;;;;;;;;;2.25;2.25;;;;;13.40;43.87;100438.66;146607;580;46020;-71
2022/04/03 03:35:35;;;;;;;;;4.75;4.00;;;;;13.40;44.16;100443.00;146607;707;46017;-70
2022/04/03 03:38:28;;;;;;;;;1.00;1.00;;;;;13.36;44.39;100446.28;146607;661;45020;-70
2022/04/03 03:41:20;;;;;;;;;0.25;0.25;;;;;13.30;44.36;100451.28;146604;570;46017;-69
2022/04/03 03:44:13;;;;;;;;;5.25;3.75;;;;;13.24;44.66;100471.84;146607;578;46021;-69
2022/04/03 03:47:05;;;;;;;;;1.00;0.00;;;;;13.14;44.99;100473.25;146605;571;46016;-73
2022/04/03 03:49:57;;;;;;;;;0.00;0.00;;;;;13.05;44.90;100481.63;146608;575;46009;-74
2022/04/03 03:52:49;;;;;;;;;2.00;1.00;;;;;12.99;44.91;100489.19;146600;726;47012;-74
2022/04/03 03:55:41;;;;;;;;;2.00;2.00;;;;;11.95;44.98;100324.84;146603;564;47013;-72
2022/04/03 03:58:34;;;;;;;;;0.00;0.00;;;;;12.93;44.76;100499.38;146604;571;46024;-72
2022/04/03 04:01:27;;;;;;;;;0.00;0.00;;;;;12.94;44.82;100509.81;146605;659;46032;-71
2022/04/03 04:04:19;;;;;;;;;0.00;0.00;;;;;12.93;44.63;100513.28;146604;600;46016;-72
2022/04/03 04:07:11;;;;;;;;;0.25;0.00;;;;;12.99;44.73;100522.13;146609;577;46008;-72
2022/04/03 04:10:07;;;;;;;;;0.75;0.75;;;;;13.03;44.70;100527.53;146605;572;47010;-72
2022/04/03 04:12:59;;;;;;;;;0.00;0.00;;;;;13.07;44.62;100534.59;146609;593;46008;-72
2022/04/03 04:15:52;;;;;;;;;0.00;0.00;;;;;13.10;44.58;100528.63;146601;696;47012;-72
2022/04/03 04:18:44;;;;;;;;;0.00;0.00;;;;;13.11;44.56;100530.41;146606;625;47008;-74
2022/04/03 04:21:36;;;;;;;;;0.00;0.00;;;;;13.14;44.37;100538.31;146608;607;45914;-73
2022/04/03 04:24:28;;;;;;;;;0.25;0.25;;;;;13.15;44.42;100538.41;146606;585;46008;-72
2022/04/03 04:27:21;;;;;;;;;0.00;0.00;;;;;13.18;44.48;100540.25;146604;660;46016;-71
2022/04/03 04:30:14;;;;;;;;;1.25;0.00;;;;;13.18;44.53;100540.25;146610;672;46008;-75
2022/04/03 04:33:06;;;;;;;;;0.75;0.00;;;;;13.20;44.18;100543.75;146601;701;47010;-72
2022/04/03 04:35:59;;;;;;;;;0.75;0.00;;;;;13.21;44.33;100544.66;146608;613;46020;-73
2022/04/03 04:38:51;;;;;;;;;0.50;0.00;;;;;13.22;44.42;100554.25;146603;629;47010;-74
2022/04/03 04:41:43;;;;;;;;;1.25;1.00;;;;;13.20;44.47;100556.78;146606;571;47008;-74
2022/04/03 04:44:36;;;;;;;;;0.00;0.00;;;;;13.23;44.74;100574.25;146603;638;46016;-69
2022/04/03 04:47:28;;;;;;;;;1.50;0.75;;;;;13.22;44.62;100570.75;146610;575;45020;-69
2022/04/03 04:50:20;;;;;;;;;1.25;0.25;;;;;13.23;44.87;100574.25;146605;565;46010;-69
2022/04/03 04:53:12;;;;;;;;;1.50;0.75;;;;;13.65;45.34;100577.59;146604;665;46020;-70
2022/04/03 04:56:05;;;;;;;;;0.00;0.00;;;;;14.55;44.48;100579.87;146603;664;47010;-70
2022/04/03 04:58:57;;;;;;;;;1.00;1.00;;;;;15.61;42.64;100578.78;146608;586;46008;-68
2022/04/03 05:01:49;;;;;;;;;0.75;0.75;;;;;16.56;40.59;100568.22;146603;694;46016;-68
2022/04/03 05:04:41;;;;;;;;;2.25;2.25;;;;;17.43;39.14;100569.34;146608;583;46008;-68
2022/04/03 05:07:34;;;;;;;;;0.00;0.00;;;;;18.09;38.00;100568.03;146602;634;46012;-68
2022/04/03 05:10:28;;;;;;;;;0.00;0.00;;;;;18.49;36.78;100567.84;146609;580;46020;-68
2022/04/03 05:13:25;;;;;;;;;1.00;0.00;;;;;18.54;36.36;100567.09;146605;628;45914;-68
2022/04/03 05:16:17;;;;;;;;;1.00;0.00;;;;;16.67;36.00;100319.78;146606;642;46020;-68
2022/04/03 05:19:10;;;;;;;;;2.50;1.25;;;;;17.82;36.71;100573.69;146605;637;47010;-69
2022/04/03 05:22:02;;;;;;;;;0.25;0.25;;;;;17.47;37.61;100576.41;146605;583;47008;-70
2022/04/03 05:24:54;;;;;;;;;1.00;1.00;;;;;17.28;38.26;100584.75;146607;658;46915;-69
2022/04/03 05:27:47;;;;;;;;;1.00;1.00;;;;;17.13;37.86;100587.03;146607;579;46008;-69
2022/04/03 05:30:40;;;;;;;;;0.00;0.00;;;;;16.97;38.43;100599.78;146603;580;46016;-72
2022/04/03 05:33:32;;;;;;;;;0.25;0.25;;;;;16.72;38.79;100590.41;146607;683;46008;-69
2022/04/03 05:36:24;;;;;;;;;1.75;0.25;;;;;16.40;39.08;100592.25;146605;589;46016;-70
2022/04/03 05:39:17;;;;;;;;;3.00;0.25;;;;;16.22;39.37;100589.16;146603;640;47008;-69
2022/04/03 05:42:09;;;;;;;;;2.00;1.50;;;;;16.18;40.52;100585.56;146601;565;47010;-70
2022/04/03 05:45:04;;;;;;;;;0.25;0.25;;;;;16.24;39.49;100590.97;146607;564;46020;-73
2022/04/03 05:47:56;;;;;;;;;0.00;0.00;;;;;15.41;38.80;100431.88;146608;570;46010;-72
2022/04/03 05:50:50;;;;;;;;;0.25;0.25;;;;;16.47;39.01;100604.62;146604;585;47012;-72
2022/04/03 05:53:42;;;;;;;;;0.50;0.50;;;;;16.46;39.08;100600.25;146606;673;46016;-69
2022/04/03 05:56:34;;;;;;;;;0.50;0.00;;;;;16.43;38.93;100607.16;146606;620;47008;-71
2022/04/03 05:59:26;;;;;;;;;1.00;0.50;;;;;16.43;38.35;100600.19;146600;584;46029;-70
2022/04/03 06:02:19;;;;;;;;;0.75;0.75;;;;;16.56;38.36;100609.22;146606;599;46020;-70
2022/04/03 06:05:12;;;;;;;;;2.25;0.50;;;;;16.72;38.67;100608.75;146605;592;46016;-71
2022/04/03 06:08:05;;;;;;;;;1.00;1.00;;;;;16.96;38.21;100616.34;146607;563;46008;-70
2022/04/03 06:10:58;;;;;;;;;2.00;0.25;;;;;17.15;38.59;100620.28;146603;664;46017;-70
2022/04/03 06:13:50;;;;;;;;;0.75;0.75;;;;;16.57;36.95;100475.78;146607;587;46008;-70
2022/04/03 06:16:42;;;;;;;;;0.50;0.50;;;;;17.63;37.80;100629.16;146602;622;46017;-70
2022/04/03 06:19:34;;;;;;;;;0.75;0.75;;;;;17.84;36.99;100629.66;146607;668;46008;-70
2022/04/03 06:22:27;;;;;;;;;0.50;0.00;;;;;18.04;36.78;100642.28;146606;577;46914;-72
2022/04/03 06:25:20;;;;;;;;;2.75;1.75;;;;;17.96;34.81;100644.75;146608;592;46008;-73
2022/04/03 06:28:12;;;;;;;;;0.00;0.00;;;;;17.77;34.91;100648.75;146605;636;46914;-74
2022/04/03 06:31:04;;;;;;;;;2.00;0.25;;;;;17.60;35.37;100647.47;146607;570;46020;-74
2022/04/03 06:33:57;;;;;;;;;0.00;0.00;;;;;17.42;34.83;100654.09;146605;571;46016;-74
2022/04/03 06:36:49;;;;;;;;;0.00;0.00;;;;;17.31;36.36;100648.59;146606;584;46028;-74
2022/04/03 06:39:41;;;;;;;;;0.67;0.67;;;;;17.24;35.46;100662.41;146605;670;46017;-74
2022/04/03 06:42:35;;;;;;;;;0.00;0.00;;;;;17.09;35.33;100652.44;146602;643;47008;-72
2022/04/03 06:45:28;;;;;;;;;2.50;1.50;;;;;17.00;35.89;100657.47;146603;693;46033;-72
2022/04/03 06:48:20;;;;;;;;;1.00;1.00;;;;;16.98;36.53;100664.44;146609;595;46009;-72
2022/04/03 06:51:12;;;;;;;;;1.00;0.00;;;;;16.93;35.92;100678.25;146603;577;46016;-75
2022/04/03 06:54:04;;;;;;;;;1.00;1.00;;;;;16.85;35.97;100664.94;146607;580;46020;-75
2022/04/03 06:56:57;;;;;;;;;0.33;0.00;;;;;16.70;35.87;100677.63;146601;593;47016;-76
2022/04/03 06:59:49;;;;;;;;;0.00;0.00;;;;;16.65;36.29;100680.13;146607;592;46020;-73
2022/04/03 07:02:42;;;;;;;;;0.00;0.00;;;;;16.72;36.41;100678.56;146607;583;46011;-71
2022/04/03 07:05:34;;;;;;;;;1.33;0.00;;;;;16.92;36.86;100689.59;146606;635;46020;-74
2022/04/03 07:08:28;;;;;;;;;1.00;0.00;;;;;17.12;37.17;100680.47;146606;641;46016;-73
2022/04/03 07:11:20;;;;;;;;;0.00;0.00;;;;;17.41;36.47;100678.50;146606;591;47012;-75
2022/04/03 07:14:12;;;;;;;;;1.33;0.00;;;;;17.56;35.72;100701.56;146601;602;47012;-73
2022/04/03 07:17:05;;;;;;;;;1.00;1.00;;;;;17.64;36.21;100694.78;146605;564;46021;-70
2022/04/03 07:19:57;;;;;;;;;0.67;0.33;;;;;17.77;36.09;100688.97;146607;571;46010;-69
2022/04/03 07:22:49;;;;;;;;;1.25;1.25;;;;;17.89;35.37;100693.59;146604;569;46020;-70
2022/04/03 07:25:42;;;;;;;;;0.33;0.33;;;;;18.09;36.90;100698.34;146603;603;46016;-70
2022/04/03 07:28:34;;;;;;;;;1.00;0.75;;;;;18.35;36.02;100701.47;146606;581;46008;-70
2022/04/03 07:31:28;;;;;;;;;0.50;0.00;;;;;18.58;35.62;100708.06;146605;692;46013;-68
2022/04/03 07:34:21;;;;;;;;;1.00;1.00;;;;;18.79;34.55;100704.09;146606;631;46021;-71
2022/04/03 07:37:13;;;;;;;;;0.67;0.33;;;;;18.91;34.76;100699.94;146603;611;46016;-72
2022/04/03 07:40:07;;;;;;;;;0.00;0.00;;;;;18.20;34.24;100563.88;146608;681;47009;-73
2022/04/03 07:43:00;;;;;;;;;0.00;0.00;;;;;19.15;34.01;100709.94;146604;566;46016;-71
2022/04/03 07:45:52;;;;;;;;;4.75;4.00;;;;;19.32;34.23;100704.97;146606;575;46008;-71
2022/04/03 07:48:44;;;;;;;;;0.25;0.00;;;;;19.49;32.39;100714.84;146602;689;47012;-72
2022/04/03 07:51:43;;;;;;;;;0.00;0.00;;;;;19.07;32.19;100639.75;146605;649;47008;-74
2022/04/03 07:54:38;;;;;;;;;0.00;0.00;;;;;19.39;32.91;100705.94;146598;579;47011;-72
2022/04/03 07:57:29;;;;;;;;;1.00;0.00;;;;;19.37;33.15;100703.28;146608;643;46020;-72
2022/04/03 08:00:22;;;;;;;;;0.00;0.00;;;;;19.51;33.54;100707.87;146606;603;46016;-71
2022/04/03 08:03:14;;;;;;;;;0.00;0.00;;;;;19.61;33.10;100722.91;146608;576;46021;-77
2022/04/03 08:06:07;;;;;;;;;9.50;8.75;;;;;19.69;36.09;100713.44;146605;604;46016;-71
2022/04/03 08:08:59;;;;;;;;;3.00;3.00;;;;;18.90;32.65;100565.91;146606;575;46020;-70
2022/04/03 08:11:51;;;;;;;;;2.25;2.25;;;;;19.78;34.16;100713.56;146600;640;47010;-69
2022/04/03 08:14:43;;;;;;;;;1.00;1.00;;;;;19.81;32.77;100710.97;146607;635;46020;-69
2022/04/03 08:17:39;;;;;;;;;2.00;0.67;;;;;19.82;32.57;100720.62;146604;582;47010;-69
2022/04/03 08:20:31;;;;;;;;;0.00;0.00;;;;;19.78;32.14;100724.09;146607;564;46008;-70
2022/04/03 08:23:24;;;;;;;;;3.33;2.33;;;;;19.75;30.47;100728.41;146605;582;46915;-70
2022/04/03 08:26:19;;;;;;;;;4.00;2.33;;;;;19.60;30.96;100729.94;146608;573;47008;-71
2022/04/03 08:29:11;;;;;;;;;1.00;0.00;;;;;19.44;30.13;100727.94;146607;593;46010;-70
2022/04/03 08:32:03;;;;;;;;;1.00;1.00;;;;;19.30;30.85;100735.59;146608;611;46021;-70
2022/04/03 08:34:56;;;;;;;;;0.00;0.00;;;;;19.13;30.77;100735.34;146607;680;46010;-70
2022/04/03 08:37:50;;;;;;;;;0.67;0.00;;;;;19.06;31.17;100738.69;146609;639;46008;-70
2022/04/03 08:40:42;;;;;;;;;0.33;0.33;;;;;19.03;30.48;100741.28;146604;621;46016;-69
2022/04/03 08:43:34;;;;;;;;;0.67;0.67;;;;;19.12;31.50;100745.81;146607;598;46020;-70
2022/04/03 08:46:29;;;;;;;;;0.33;0.33;;;;;19.06;30.67;100748.34;146604;612;46017;-69
2022/04/03 08:49:24;;;;;;;;;0.00;0.00;;;;;19.06;31.41;100749.22;146608;577;46008;-69
2022/04/03 08:52:17;;;;;;;;;1.33;0.67;;;;;19.16;31.72;100731.87;146605;570;46915;-69
2022/04/03 08:55:10;;;;;;;;;0.00;0.00;;;;;19.36;29.73;100750.59;146603;597;47008;-70
2022/04/03 08:58:08;;;;;;;;;0.00;0.00;;;;;19.53;30.30;100737.69;146605;625;47010;-71
2022/04/03 09:01:00;;;;;;;;;0.00;0.00;;;;;19.71;29.83;100745.87;146611;629;46021;-70
2022/04/03 09:03:52;;;;;;;;;0.00;0.00;;;;;19.88;30.53;100747.91;146605;565;46016;-71
2022/04/03 09:07:01;;;;;;;;;0.00;0.00;;;;;20.01;30.09;100739.28;146609;563;46008;-70
2022/04/03 09:10:09;;;;;;;;;0.00;0.00;;;;;19.98;30.25;100734.88;146604;606;46017;-70
2022/04/03 09:13:02;;;;;;;;;0.00;0.00;;;;;20.19;29.97;100746.53;146608;591;46020;-70
2022/04/03 09:15:54;;;;;;;;;0.00;0.00;;;;;20.36;29.72;100733.56;146601;604;46016;-70
2022/04/03 09:18:47;;;;;;;;;0.00;0.00;;;;;20.52;29.87;100739.03;146609;617;46020;-71
2022/04/03 09:21:39;;;;;;;;;0.00;0.00;;;;;20.74;30.45;100736.62;146605;578;46914;-70
2022/04/03 09:24:36;;;;;;;;;1.67;0.00;;;;;20.96;30.04;100743.88;146608;596;47008;-70
2022/04/03 09:27:28;;;;;;;;;0.00;0.00;;;;;21.14;29.06;100743.16;146602;573;46016;-66
2022/04/03 09:30:23;;;;;;;;;0.00;0.00;;;;;21.23;29.71;100740.59;146609;573;46020;-72
2022/04/03 09:33:20;;;;;;;;;0.00;0.00;;;;;21.31;29.47;100727.47;146607;588;46016;-72
2022/04/03 09:36:12;;;;;;;;;0.00;0.00;;;;;21.31;28.32;100734.47;146611;591;46008;-73
2022/04/03 09:39:25;;;;;;;;;0.00;0.00;;;;;21.29;29.51;100736.25;146605;677;46011;-73
2022/04/03 09:42:18;;;;;;;;;0.00;0.00;;;;;21.33;29.12;100738.91;146607;600;46020;-72
2022/04/03 09:45:11;;;;;;;;;0.00;0.00;;;;;21.43;29.28;100732.88;146604;592;46016;-74
2022/04/03 09:48:03;;;;;;;;;0.00;0.00;;;;;21.60;29.40;100732.09;146607;575;46021;-72
2022/04/03 09:51:21;;;;;;;;;0.00;0.00;;;;;21.84;28.70;100736.66;146604;588;46010;-74
2022/04/03 09:54:22;;;;;;;;;0.67;0.00;;;;;22.00;28.55;100745.53;146606;582;47012;-73
2022/04/03 09:57:27;;;;;;;;;0.00;0.00;;;;;21.30;29.64;100603.50;146603;569;47012;-72
2022/04/03 10:00:37;;;;;;;;;4.75;4.50;;;;;22.28;29.76;100742.16;146605;680;47013;-74
2022/04/03 10:03:29;;;;;;;;;11.50;10.25;;;;;22.45;29.17;100734.28;146605;570;47010;-77
2022/04/03 10:06:25;;;;;;;;;0.00;0.00;;;;;22.61;27.49;100727.25;146607;565;47020;-72
2022/04/03 10:09:19;;;;;;;;;0.00;0.00;;;;;22.66;28.56;100722.88;146600;593;47010;-72
2022/04/03 10:12:12;;;;;;;;;1.67;1.00;;;;;22.80;28.08;100718.50;146605;563;46020;-72
2022/04/03 10:15:09;;;;;;;;;0.00;0.00;;;;;22.68;25.29;100718.47;146607;591;46010;-71
2022/04/03 10:18:01;;;;;;;;;1.00;0.00;;;;;22.59;26.49;100715.81;146606;637;46020;-72
2022/04/03 10:20:54;;;;;;;;;0.00;0.00;;;;;22.50;25.62;100721.97;146603;572;46016;-72
2022/04/03 10:23:48;;;;;;;;;0.33;0.00;;;;;22.52;26.50;100732.53;146603;628;46027;-72
2022/04/03 10:26:42;;;;;;;;;4.75;3.25;;;;;22.53;26.86;100748.41;146603;675;47010;-71
2022/04/03 10:29:40;;;;;;;;;0.33;0.33;;;;;22.44;26.20;100742.22;146609;634;46021;-72
2022/04/03 10:32:34;;;;;;;;;3.67;3.00;;;;;22.41;27.57;100744.84;146604;564;47010;-72
2022/04/03 10:35:26;;;;;;;;;2.33;2.33;;;;;22.53;28.15;100740.47;146609;566;46008;-73
2022/04/03 10:38:19;;;;;;;;;2.00;0.67;;;;;22.55;26.17;100741.38;146601;579;46030;-72
2022/04/03 10:41:11;;;;;;;;;1.33;1.33;;;;;22.37;26.57;100746.59;146604;578;47008;-71
2022/04/03 10:44:32;;;;;;;;;0.00;0.00;;;;;21.98;27.40;100756.06;146607;589;46030;-71
2022/04/03 10:47:24;;;;;;;;;0.67;0.67;;;;;21.80;28.25;100750.69;146609;620;46008;-72
2022/04/03 10:50:18;;;;;;;;;1.67;1.67;;;;;21.89;27.90;100753.38;146607;581;46914;-70
2022/04/03 10:53:09;;;;;;;;;0.00;0.00;;;;;22.00;28.23;100756.97;146611;673;46008;-72
2022/04/03 10:56:07;;;;;;;;;0.00;0.00;;;;;22.19;28.03;100747.41;146606;583;46010;-71
2022/04/03 10:59:01;;;;;;;;;0.67;0.00;;;;;22.36;27.22;100750.09;146609;577;46020;-72
2022/04/03 11:01:54;;;;;;;;;1.67;0.00;;;;;22.42;27.19;100754.53;146601;583;46915;-71
2022/04/03 11:04:46;;;;;;;;;7.00;4.75;;;;;22.30;27.96;100758.87;146606;586;46031;-71
2022/04/03 11:07:39;;;;;;;;;0.00;0.00;;;;;22.08;27.57;100746.41;146604;570;46915;-71
2022/04/03 11:11:01;;;;;;;;;0.00;0.00;;;;;21.98;27.67;100755.19;146607;664;46020;-68
2022/04/03 11:13:53;;;;;;;;;0.33;0.33;;;;;21.98;28.52;100753.41;146607;602;46010;-68
2022/04/03 11:17:00;;;;;;;;;1.00;0.00;;;;;22.01;28.17;100758.72;146608;601;47008;-73
2022/04/03 11:19:54;;;;;;;;;0.00;0.00;;;;;22.07;29.30;100744.66;146601;565;46016;-72
2022/04/03 11:22:47;;;;;;;;;0.00;0.00;;;;;22.15;27.86;100756.16;146608;583;46021;-73
2022/04/03 11:25:39;;;;;;;;;0.00;0.00;;;;;22.25;28.01;100747.41;146606;577;47010;-70
2022/04/03 11:28:32;;;;;;;;;0.67;0.00;;;;;22.30;28.42;100748.31;146608;644;46019;-72
2022/04/03 11:31:24;;;;;;;;;2.00;1.33;;;;;22.35;27.75;100741.28;146605;606;46017;-72
2022/04/03 11:34:17;;;;;;;;;1.00;0.33;;;;;22.43;27.92;100737.78;146610;642;47008;-73
2022/04/03 11:37:13;;;;;;;;;0.67;0.67;;;;;22.49;27.16;100745.72;146604;625;46017;-72
2022/04/03 11:40:08;;;;;;;;;0.33;0.00;;;;;22.58;26.49;100738.69;146603;575;47008;-72
2022/04/03 11:43:32;;;;;;;;;0.33;0.33;;;;;22.68;29.01;100736.06;146606;604;46016;-72
2022/04/03 11:46:26;;;;;;;;;0.00;0.00;;;;;22.60;26.66;100734.31;146608;617;47010;-72
2022/04/03 11:49:25;;;;;;;;;0.00;0.00;;;;;22.55;27.58;100733.44;146607;608;46914;-71
2022/04/03 11:52:17;;;;;;;;;0.33;0.00;;;;;22.52;27.23;100722.84;146604;607;47008;-71
2022/04/03 11:55:15;;;;;;;;;0.00;0.00;;;;;22.57;26.90;100718.44;146606;584;46012;-71
2022/04/03 11:58:07;;;;;;;;;0.00;0.00;;;;;22.45;26.57;100723.69;146610;600;46020;-71
2022/04/03 12:01:02;;;;;;;;;0.00;0.00;;;;;22.25;26.67;100714.84;146604;569;46016;-71
2022/04/03 12:04:03;;;;;;;;;0.00;0.00;;;;;22.27;26.39;100724.50;146610;575;46020;-72
2022/04/03 12:07:01;;;;;;;;;1.33;0.00;;;;;22.30;25.78;100721.87;146607;632;45915;-72
2022/04/03 12:09:53;;;;;;;;;0.00;0.00;;;;;22.37;27.01;100705.19;146606;563;46019;-71
2022/04/03 12:12:45;;;;;;;;;0.33;0.00;;;;;22.48;26.30;100697.28;146607;611;46914;-71
2022/04/03 12:15:40;;;;;;;;;0.33;0.00;;;;;22.51;25.69;100702.56;146609;693;46021;-71
2022/04/03 12:18:54;;;;;;;;;0.33;0.00;;;;;22.57;27.17;100699.06;146603;656;46033;-72
2022/04/03 12:21:57;;;;;;;;;0.00;0.00;;;;;22.65;27.21;100685.84;146610;592;46008;-72
2022/04/03 12:24:50;;;;;;;;;0.00;0.00;;;;;22.81;26.72;100677.06;146603;574;46016;-72
2022/04/03 12:27:42;;;;;;;;;2.00;0.33;;;;;22.92;26.60;100670.00;146607;593;47012;-72
2022/04/03 12:30:34;;;;;;;;;0.67;0.00;;;;;22.98;26.08;100680.63;146600;591;46010;-72
2022/04/03 12:33:26;;;;;;;;;0.67;0.33;;;;;23.00;26.92;100663.00;146607;618;46020;-73
2022/04/03 12:36:19;;;;;;;;;0.00;0.00;;;;;23.07;26.96;100673.56;146606;580;47010;-72
2022/04/03 12:39:50;;;;;;;;;0.00;0.00;;;;;22.21;26.38;100517.63;146608;596;46020;-71
2022/04/03 12:42:46;;;;;;;;;0.67;0.00;;;;;22.94;26.87;100673.56;146602;563;48010;-71
2022/04/03 12:45:39;;;;;;;;;0.00;0.00;;;;;22.89;25.65;100664.72;146609;590;46008;-71
2022/04/03 12:48:31;;;;;;;;;1.00;0.00;;;;;22.88;25.71;100659.44;146604;569;46012;-71
2022/04/03 12:51:23;;;;;;;;;0.33;0.00;;;;;22.81;25.65;100661.22;146606;634;46020;-72
2022/04/03 12:54:15;;;;;;;;;0.33;0.33;;;;;22.77;27.08;100667.34;146604;573;46010;-71
2022/04/03 13:00:22;;;;;;;;;0.00;0.00;;;;;22.64;26.56;100668.25;146605;595;47010;-71
2022/04/03 13:03:14;;;;;;;;;0.00;0.00;;;;;22.66;26.76;100655.91;146610;587;46020;-71
2022/04/03 13:06:16;;;;;;;;;0.00;0.00;;;;;22.64;27.36;100657.66;146601;603;47012;-70
2022/04/03 13:09:10;;;;;;;;;0.67;0.00;;;;;22.38;26.81;100647.97;146606;583;46027;-71
2022/04/03 13:12:02;;;;;;;;;1.00;1.00;;;;;22.15;28.46;100653.16;146605;607;46016;-71
2022/04/03 13:14:55;;;;;;;;;0.00;0.00;;;;;22.02;28.94;100657.50;146607;591;46008;-72
2022/04/03 13:17:49;;;;;;;;;0.00;0.00;;;;;22.04;29.04;100652.25;146605;564;46016;-72
2022/04/03 13:20:41;;;;;;;;;0.00;0.00;;;;;22.10;28.95;100650.50;146607;614;46020;-72
2022/04/03 13:23:33;;;;;;;;;0.33;0.00;;;;;22.10;28.08;100647.84;146605;602;46915;-72
2022/04/03 13:26:25;;;;;;;;;0.00;0.00;;;;;22.05;26.73;100662.78;146608;616;46008;-72
2022/04/03 13:29:18;;;;;;;;;0.33;0.33;;;;;22.10;28.03;100666.34;146602;597;47010;-71
2022/04/03 13:32:10;;;;;;;;;0.00;0.00;;;;;22.11;27.08;100649.59;146607;683;46020;-71